Time,TemperatureF,DewpointF,PressureIn,WindDirection,WindDirectionDegrees,WindSpeedMPH,WindSpeedGustMPH,Humidity,HourlyPrecipIn,Conditions,Clouds,dailyrainin,SoftwareType,DateUTC
2013-05-24 00:01:00,62.0,25.0,29.61,SW,230,15.0,37.0,24,-99.99,,,0.00,,2013-05-24 07:01:00,
2013-05-24 00:11:00,62.0,25.0,29.61,SW,230,15.0,37.0,24,-99.99,,,0.00,,2013-05-24 07:11:00,
2013-05-24 00:22:00,62.0,25.0,29.60,WSW,237,19.0,30.0,24,-99.99,,,0.00,,2013-05-24 07:22:00,
2013-05-24 00:31:00,62.0,25.0,29.60,WSW,237,19.0,30.0,24,-99.99,,,0.00,,2013-05-24 07:31:00,
2013-05-24 00:42:00,62.0,25.0,29.61,SW,223,16.0,33.0,24,-99.99,,,0.00,,2013-05-24 07:42:00,
2013-05-24 00:52:00,61.0,24.0,29.62,West,269,15.0,26.0,24,-99.99,,,0.00,,2013-05-24 07:52:00,
2013-05-24 01:02:00,61.0,24.0,29.62,SW,223,9.0,26.0,24,-99.99,,,0.00,,2013-05-24 08:02:00,
2013-05-24 01:11:00,61.0,24.0,29.62,SW,223,9.0,26.0,24,-99.99,,,0.00,,2013-05-24 08:11:00,
2013-05-24 01:22:00,61.0,25.0,29.62,SW,221,7.0,28.0,25,-99.99,,,0.00,,2013-05-24 08:22:00,
2013-05-24 01:32:00,60.0,25.0,29.64,WSW,237,9.0,28.0,26,-99.99,,,0.00,,2013-05-24 08:32:00,
2013-05-24 01:41:00,60.0,25.0,29.64,WSW,237,9.0,28.0,26,-99.99,,,0.00,,2013-05-24 08:41:00,
2013-05-24 01:52:00,59.0,24.0,29.63,SSW,198,2.0,18.0,26,-99.99,,,0.00,,2013-05-24 08:52:00,
2013-05-24 02:01:00,59.0,24.0,29.63,SSW,198,2.0,18.0,26,-99.99,,,0.00,,2013-05-24 09:01:00,
2013-05-24 02:11:00,59.0,24.0,29.63,SSW,198,2.0,18.0,26,-99.99,,,0.00,,2013-05-24 09:11:00,
2013-05-24 02:21:00,59.0,24.0,29.63,SW,232,6.0,18.0,26,-99.99,,,0.00,,2013-05-24 09:21:00,
2013-05-24 02:32:00,58.0,24.0,29.65,SW,230,2.0,18.0,26,-99.99,,,0.00,,2013-05-24 09:32:00,
2013-05-24 02:42:00,58.0,24.0,29.65,SW,230,2.0,18.0,26,-99.99,,,0.00,,2013-05-24 09:42:00,
2013-05-24 02:53:00,57.0,23.0,29.66,SW,218,10.0,11.0,26,-99.99,,,0.00,,2013-05-24 09:53:00,
2013-05-24 03:02:00,57.0,23.0,29.66,SW,218,10.0,11.0,26,-99.99,,,0.00,,2013-05-24 10:02:00,
2013-05-24 03:22:00,56.0,22.0,29.67,SSW,199,5.0,11.0,26,-99.99,,,0.00,,2013-05-24 10:22:00,
2013-05-24 03:52:00,51.0,20.0,29.71,SSW,201,0.0,13.0,29,-99.99,,,0.00,,2013-05-24 10:52:00,
2013-05-24 04:02:00,51.0,20.0,29.71,SSW,201,0.0,13.0,29,-99.99,,,0.00,,2013-05-24 11:02:00,
2013-05-24 04:22:00,49.0,20.0,29.73,SSW,200,0.0,0.0,32,-99.99,,,0.00,,2013-05-24 11:22:00,
2013-05-24 04:32:00,46.0,20.0,29.76,SSW,201,0.0,0.0,35,-99.99,,,0.00,,2013-05-24 11:32:00,
2013-05-24 04:41:00,46.0,20.0,29.76,SSW,201,0.0,0.0,35,-99.99,,,0.00,,2013-05-24 11:41:00,
2013-05-24 04:52:00,45.0,20.0,29.78,SSW,201,2.0,3.0,37,-99.99,,,0.00,,2013-05-24 11:52:00,
2013-05-24 05:01:00,44.0,20.0,29.80,SSW,201,2.0,3.0,37,-99.99,,,0.00,,2013-05-24 12:01:00,
2013-05-24 05:11:00,44.0,20.0,29.80,SSW,201,2.0,3.0,37,-99.99,,,0.00,,2013-05-24 12:11:00,
2013-05-24 05:21:00,43.0,20.0,29.80,SSW,201,0.0,3.0,39,-99.99,,,0.00,,2013-05-24 12:21:00,
2013-05-24 05:32:00,41.0,20.0,29.82,SSW,201,2.0,3.0,42,-99.99,,,0.00,,2013-05-24 12:32:00,
2013-05-24 05:42:00,41.0,20.0,29.82,SSW,201,2.0,3.0,42,-99.99,,,0.00,,2013-05-24 12:42:00,
2013-05-24 05:52:00,41.0,21.0,29.84,SSW,200,1.0,3.0,44,-99.99,,,0.00,,2013-05-24 12:52:00,
2013-05-24 06:02:00,42.0,21.0,29.82,SSW,201,3.0,4.0,43,-99.99,,,0.00,,2013-05-24 13:02:00,
2013-05-24 06:11:00,42.0,21.0,29.82,SSW,201,3.0,4.0,43,-99.99,,,0.00,,2013-05-24 13:11:00,
2013-05-24 06:21:00,42.0,21.0,29.83,SSW,202,2.0,5.0,43,-99.99,,,0.00,,2013-05-24 13:21:00,
2013-05-24 06:31:00,44.0,22.0,29.82,SSW,202,0.0,5.0,42,-99.99,,,0.00,,2013-05-24 13:31:00,
2013-05-24 06:41:00,44.0,22.0,29.82,SSW,202,0.0,5.0,42,-99.99,,,0.00,,2013-05-24 13:41:00,
2013-05-24 06:52:00,48.0,24.0,29.82,SSW,202,1.0,4.0,39,-99.99,,,0.00,,2013-05-24 13:52:00,
2013-05-24 07:01:00,48.0,24.0,29.82,SSW,202,1.0,4.0,39,-99.99,,,0.00,,2013-05-24 14:01:00,
2013-05-24 07:11:00,48.0,24.0,29.82,SSW,202,1.0,4.0,39,-99.99,,,0.00,,2013-05-24 14:11:00,
2013-05-24 07:21:00,51.0,27.0,29.80,SSW,202,2.0,5.0,38,-99.99,,,0.00,,2013-05-24 14:21:00,
2013-05-24 07:31:00,57.0,29.0,29.77,South,183,14.0,15.0,35,-99.99,,,0.00,,2013-05-24 14:31:00,
2013-05-24 07:42:00,57.0,29.0,29.77,South,183,14.0,15.0,35,-99.99,,,0.00,,2013-05-24 14:42:00,
2013-05-24 07:52:00,58.0,28.0,29.77,South,188,7.0,15.0,32,-99.99,,,-99.99,,2013-05-24 14:52:00,
2013-05-24 08:02:00,58.0,28.0,29.77,South,188,7.0,15.0,32,-99.99,,,-99.99,,2013-05-24 15:02:00,
2013-05-24 08:11:00,58.0,27.0,29.77,SW,219,6.0,21.0,30,-99.99,,,0.00,,2013-05-24 15:11:00,
2013-05-24 08:21:00,59.0,25.0,29.77,SSW,192,10.0,18.0,27,-99.99,,,0.00,,2013-05-24 15:21:00,
2013-05-24 08:32:00,60.0,27.0,29.77,South,170,11.0,19.0,28,-99.99,,,0.00,,2013-05-24 15:32:00,
2013-05-24 08:43:00,60.0,27.0,29.77,South,170,11.0,19.0,28,-99.99,,,0.00,,2013-05-24 15:43:00,
2013-05-24 08:52:00,60.0,27.0,29.78,South,188,9.0,19.0,29,-99.99,,,0.00,,2013-05-24 15:52:00,
2013-05-24 09:03:00,60.0,27.0,29.78,South,188,9.0,19.0,29,-99.99,,,0.00,,2013-05-24 16:03:00,
2013-05-24 09:12:00,61.0,27.0,29.78,SW,216,17.0,19.0,27,-99.99,,,0.00,,2013-05-24 16:12:00,
2013-05-24 09:22:00,62.0,25.0,29.76,SSW,195,13.0,20.0,24,-99.99,,,0.00,,2013-05-24 16:22:00,
2013-05-24 09:32:00,63.0,26.0,29.76,SSW,199,10.0,20.0,24,-99.99,,,0.00,,2013-05-24 16:32:00,
2013-05-24 09:42:00,63.0,26.0,29.76,SSW,199,10.0,20.0,24,-99.99,,,0.00,,2013-05-24 16:42:00,
2013-05-24 09:52:00,64.0,22.0,29.76,SSW,192,20.0,27.0,20,-99.99,,,0.00,,2013-05-24 16:52:00,
2013-05-24 10:01:00,64.0,22.0,29.76,SSW,192,20.0,27.0,20,-99.99,,,0.00,,2013-05-24 17:01:00,
2013-05-24 10:12:00,64.0,22.0,29.76,SSW,192,20.0,27.0,20,-99.99,,,0.00,,2013-05-24 17:12:00,
2013-05-24 10:22:00,64.0,22.0,29.75,SW,222,18.0,32.0,20,-99.99,,,0.00,,2013-05-24 17:22:00,
2013-05-24 10:32:00,65.0,21.0,29.74,SSW,202,19.0,32.0,19,-99.99,,,0.00,,2013-05-24 17:32:00,
2013-05-24 10:41:00,65.0,21.0,29.74,SSW,202,19.0,32.0,19,-99.99,,,0.00,,2013-05-24 17:41:00,
2013-05-24 10:52:00,65.0,22.0,29.76,SSW,199,10.0,23.0,19,-99.99,,,0.00,,2013-05-24 17:52:00,
2013-05-24 11:01:00,65.0,22.0,29.76,SSW,199,10.0,23.0,19,-99.99,,,0.00,,2013-05-24 18:01:00,
2013-05-24 11:11:00,66.0,20.0,29.74,SSE,165,20.0,28.0,17,-99.99,,,0.00,,2013-05-24 18:11:00,
2013-05-24 11:21:00,66.0,20.0,29.74,SSE,167,13.0,28.0,17,-99.99,,,0.00,,2013-05-24 18:21:00,
2013-05-24 11:32:00,66.0,20.0,29.74,SSE,167,13.0,28.0,17,-99.99,,,0.00,,2013-05-24 18:32:00,
2013-05-24 11:41:00,67.0,20.0,29.74,South,180,10.0,30.0,17,-99.99,,,0.00,,2013-05-24 18:41:00,
2013-05-24 11:52:00,67.0,20.0,29.74,SSW,192,14.0,33.0,16,-99.99,,,0.00,,2013-05-24 18:52:00,
2013-05-24 12:01:00,67.0,20.0,29.74,SSW,192,14.0,33.0,16,-99.99,,,0.00,,2013-05-24 19:01:00,
2013-05-24 12:11:00,67.0,20.0,29.74,SW,215,17.0,33.0,16,-99.99,,,0.00,,2013-05-24 19:11:00,
2013-05-24 12:21:00,68.0,20.0,29.72,SSW,196,24.0,31.0,16,-99.99,,,0.00,,2013-05-24 19:21:00,
2013-05-24 12:31:00,68.0,21.0,29.71,SW,230,22.0,31.0,16,-99.99,,,0.00,,2013-05-24 19:31:00,
2013-05-24 12:41:00,68.0,21.0,29.71,SW,230,22.0,31.0,16,-99.99,,,0.00,,2013-05-24 19:41:00,
2013-05-24 12:52:00,70.0,21.0,29.72,SSW,213,17.0,28.0,15,-99.99,,,0.00,,2013-05-24 19:52:00,
2013-05-24 13:02:00,70.0,21.0,29.72,SSW,213,17.0,28.0,15,-99.99,,,0.00,,2013-05-24 20:02:00,
2013-05-24 13:11:00,68.0,19.0,29.73,South,181,10.0,29.0,15,-99.99,,,-99.99,,2013-05-24 20:11:00,
2013-05-24 13:21:00,68.0,20.0,29.73,SW,227,12.0,27.0,16,-99.99,,,0.00,,2013-05-24 20:21:00,
2013-05-24 13:31:00,69.0,21.0,29.73,SW,214,19.0,31.0,16,-99.99,,,0.00,,2013-05-24 20:31:00,
2013-05-24 13:41:00,69.0,21.0,29.73,SW,214,19.0,31.0,16,-99.99,,,0.00,,2013-05-24 20:41:00,
2013-05-24 13:52:00,70.0,22.0,29.72,SSW,200,24.0,31.0,16,-99.99,,,0.00,,2013-05-24 20:52:00,
2013-05-24 14:01:00,70.0,22.0,29.72,SSW,200,24.0,31.0,16,-99.99,,,0.00,,2013-05-24 21:01:00,
2013-05-24 14:11:00,70.0,22.0,29.72,South,180,13.0,31.0,16,-99.99,,,0.00,,2013-05-24 21:11:00,
2013-05-24 14:21:00,70.0,22.0,29.72,SSW,197,22.0,33.0,16,-99.99,,,0.00,,2013-05-24 21:21:00,
2013-05-24 14:32:00,70.0,23.0,29.72,SSW,202,23.0,33.0,17,-99.99,,,0.00,,2013-05-24 21:32:00,
2013-05-24 14:42:00,70.0,23.0,29.72,SSW,202,23.0,33.0,17,-99.99,,,0.00,,2013-05-24 21:42:00,
2013-05-24 14:53:00,71.0,21.0,29.73,SSW,206,25.0,31.0,15,-99.99,,,0.00,,2013-05-24 21:53:00,
2013-05-24 15:02:00,71.0,21.0,29.73,SSW,206,25.0,31.0,15,-99.99,,,0.00,,2013-05-24 22:02:00,
2013-05-24 15:12:00,71.0,24.0,29.72,South,173,10.0,31.0,17,-99.99,,,0.00,,2013-05-24 22:12:00,
2013-05-24 15:22:00,72.0,20.0,29.72,SW,227,22.0,32.0,14,-99.99,,,0.00,,2013-05-24 22:22:00,
2013-05-24 15:32:00,71.0,20.0,29.72,South,174,17.0,40.0,14,-99.99,,,0.00,,2013-05-24 22:32:00,
2013-05-24 15:42:00,71.0,20.0,29.72,South,174,17.0,40.0,14,-99.99,,,0.00,,2013-05-24 22:42:00,
2013-05-24 15:52:00,71.0,19.0,29.79,SW,219,15.0,36.0,14,-99.99,,,0.00,,2013-05-24 22:52:00,
2013-05-24 16:02:00,71.0,19.0,29.79,SW,219,15.0,36.0,14,-99.99,,,0.00,,2013-05-24 23:02:00,
2013-05-24 16:11:00,72.0,20.0,29.76,SSW,210,24.0,42.0,14,-99.99,,,0.00,,2013-05-24 23:11:00,
2013-05-24 16:22:00,72.0,18.0,29.76,SSW,206,25.0,40.0,13,-99.99,,,0.00,,2013-05-24 23:22:00,
2013-05-24 16:32:00,72.0,18.0,29.76,SSW,206,25.0,40.0,13,-99.99,,,0.00,,2013-05-24 23:32:00,
2013-05-24 16:42:00,72.0,18.0,29.76,SW,214,17.0,40.0,13,-99.99,,,0.00,,2013-05-24 23:42:00,
2013-05-24 16:52:00,72.0,20.0,29.80,SSW,193,13.0,36.0,14,-99.99,,,0.00,,2013-05-24 23:52:00,
2013-05-24 17:01:00,71.0,18.0,29.80,SSW,207,25.0,36.0,13,-99.99,,,0.00,,2013-05-25 00:01:00,
2013-05-24 17:11:00,71.0,18.0,29.80,SSW,207,25.0,36.0,13,-99.99,,,0.00,,2013-05-25 00:11:00,
2013-05-24 17:21:00,71.0,18.0,29.80,South,176,13.0,33.0,13,-99.99,,,0.00,,2013-05-25 00:21:00,
2013-05-24 17:32:00,71.0,18.0,29.80,South,176,13.0,33.0,13,-99.99,,,0.00,,2013-05-25 00:32:00,
2013-05-24 17:41:00,71.0,19.0,29.80,SSW,205,27.0,33.0,14,-99.99,,,0.00,,2013-05-25 00:41:00,
2013-05-24 17:52:00,70.0,20.0,29.78,SSW,203,19.0,33.0,15,-99.99,,,0.00,,2013-05-25 00:52:00,
2013-05-24 18:01:00,70.0,20.0,29.78,SW,225,16.0,33.0,15,-99.99,,,0.00,,2013-05-25 01:01:00,
2013-05-24 18:22:00,69.0,21.0,29.79,South,188,10.0,28.0,16,-99.99,,,0.00,,2013-05-25 01:22:00,
2013-05-24 18:32:00,69.0,22.0,29.79,South,180,22.0,28.0,17,-99.99,,,0.00,,2013-05-25 01:32:00,
2013-05-24 18:52:00,68.0,23.0,29.72,SSW,211,17.0,29.0,18,-99.99,,,0.00,,2013-05-25 01:52:00,
2013-05-24 19:11:00,68.0,23.0,29.72,SW,217,25.0,33.0,18,-99.99,,,0.00,,2013-05-25 02:11:00,
2013-05-24 19:21:00,67.0,23.0,29.72,SW,223,21.0,28.0,19,-99.99,,,0.00,,2013-05-25 02:21:00,
2013-05-24 19:31:00,66.0,24.0,29.73,SSW,196,17.0,31.0,20,-99.99,,,0.00,,2013-05-25 02:31:00,
2013-05-24 19:42:00,66.0,24.0,29.73,SSW,196,17.0,31.0,20,-99.99,,,0.00,,2013-05-25 02:42:00,
2013-05-24 19:52:00,65.0,23.0,29.71,SSW,200,14.0,25.0,20,-99.99,,,0.00,,2013-05-25 02:52:00,
2013-05-24 20:01:00,65.0,24.0,29.72,SSW,199,10.0,25.0,21,-99.99,,,0.00,,2013-05-25 03:01:00,
2013-05-24 20:11:00,65.0,24.0,29.72,SSW,199,10.0,25.0,21,-99.99,,,0.00,,2013-05-25 03:11:00,
2013-05-24 20:21:00,64.0,24.0,29.73,SSW,201,11.0,24.0,21,-99.99,,,0.00,,2013-05-25 03:21:00,
2013-05-24 20:32:00,64.0,24.0,29.73,SSW,201,11.0,24.0,21,-99.99,,,0.00,,2013-05-25 03:32:00,
2013-05-24 20:43:00,64.0,24.0,29.72,SW,221,16.0,29.0,22,-99.99,,,0.00,,2013-05-25 03:43:00,
2013-05-24 20:53:00,64.0,23.0,29.71,SW,218,19.0,30.0,21,-99.99,,,0.00,,2013-05-25 03:53:00,
2013-05-24 21:02:00,65.0,23.0,29.69,SW,220,25.0,31.0,20,-99.99,,,0.00,,2013-05-25 04:02:00,
2013-05-24 21:12:00,65.0,23.0,29.69,SW,220,25.0,31.0,20,-99.99,,,0.00,,2013-05-25 04:12:00,
2013-05-24 21:23:00,65.0,24.0,29.69,SW,221,21.0,34.0,21,-99.99,,,0.00,,2013-05-25 04:23:00,
2013-05-24 21:32:00,64.0,25.0,29.70,SSW,206,24.0,36.0,22,-99.99,,,0.00,,2013-05-25 04:32:00,
2013-05-24 21:43:00,64.0,25.0,29.70,SSW,206,24.0,36.0,22,-99.99,,,0.00,,2013-05-25 04:43:00,
2013-05-24 21:52:00,64.0,26.0,29.69,SW,226,23.0,34.0,23,-99.99,,,0.00,,2013-05-25 04:52:00,
2013-05-24 22:02:00,64.0,26.0,29.69,SW,226,23.0,34.0,23,-99.99,,,0.00,,2013-05-25 05:02:00,
2013-05-24 22:12:00,64.0,27.0,29.69,SW,224,20.0,34.0,24,-99.99,,,0.00,,2013-05-25 05:12:00,
2013-05-24 22:22:00,64.0,27.0,29.69,SSW,207,28.0,35.0,24,-99.99,,,0.00,,2013-05-25 05:22:00,
2013-05-24 22:32:00,64.0,26.0,29.69,SW,227,19.0,39.0,24,-99.99,,,0.00,,2013-05-25 05:32:00,
2013-05-24 22:42:00,64.0,26.0,29.69,SW,227,19.0,39.0,24,-99.99,,,0.00,,2013-05-25 05:42:00,
2013-05-24 22:52:00,64.0,27.0,29.66,SW,222,30.0,43.0,25,-99.99,,,0.00,,2013-05-25 05:52:00,
2013-05-24 23:01:00,64.0,27.0,29.66,SW,222,30.0,43.0,25,-99.99,,,0.00,,2013-05-25 06:01:00,
2013-05-24 23:12:00,64.0,27.0,29.66,SW,222,30.0,43.0,25,-99.99,,,0.00,,2013-05-25 06:12:00,
2013-05-24 23:21:00,63.0,27.0,29.66,SW,224,21.0,36.0,25,-99.99,,,0.00,,2013-05-25 06:21:00,
2013-05-24 23:32:00,63.0,28.0,29.65,SSW,212,19.0,41.0,26,-99.99,,,0.00,,2013-05-25 06:32:00,
2013-05-24 23:42:00,63.0,28.0,29.65,SSW,212,19.0,41.0,26,-99.99,,,0.00,,2013-05-25 06:42:00,
2013-05-24 23:52:00,63.0,28.0,29.64,SW,216,23.0,40.0,26,-99.99,,,0.00,,2013-05-25 06:52:00,